createdAt,value
2023-02-19T00:00:26.776Z,17.15
2023-02-19T00:03:29.596Z,21.40
2023-02-19T00:06:33.740Z,13.93
2023-02-19T00:09:36.442Z,11.45
2023-02-19T00:12:39.156Z,12.00
2023-02-19T00:15:42.047Z,10.93
2023-02-19T00:18:45.570Z,11.55
2023-02-19T00:21:51.188Z,10.90
2023-02-19T00:24:53.909Z,13.07
2023-02-19T00:27:57.171Z,10.37
2023-02-19T00:31:15.878Z,9.65
2023-02-19T00:34:18.717Z,11.65
2023-02-19T00:37:21.314Z,9.00
2023-02-19T00:40:26.263Z,9.70
2023-02-19T00:43:28.868Z,9.40
2023-02-19T00:46:35.612Z,7.65
2023-02-19T00:49:38.397Z,10.45
2023-02-19T00:52:41.088Z,9.02
2023-02-19T00:55:43.766Z,8.32
2023-02-19T00:58:47.201Z,8.63
2023-02-19T01:01:50.350Z,7.35
2023-02-19T01:04:53.623Z,6.25
2023-02-19T01:07:56.350Z,6.68
2023-02-19T01:10:59.865Z,5.80
2023-02-19T01:14:03.626Z,6.00
2023-02-19T01:17:06.490Z,6.65
2023-02-19T01:20:09.618Z,5.68
2023-02-19T01:23:14.487Z,6.35
2023-02-19T01:26:26.036Z,5.43
2023-02-19T01:29:28.814Z,5.43
2023-02-19T01:32:31.545Z,7.30
2023-02-19T01:35:35.045Z,7.12
2023-02-19T01:38:37.747Z,5.20
2023-02-19T01:41:41.997Z,4.82
2023-02-19T01:44:47.900Z,5.67
2023-02-19T01:47:55.908Z,5.62
2023-02-19T01:51:18.100Z,5.15
2023-02-19T01:54:23.055Z,4.75
2023-02-19T01:57:29.411Z,5.85
2023-02-19T02:00:33.777Z,5.70
2023-02-19T02:03:39.081Z,6.93
2023-02-19T02:06:53.337Z,5.60
2023-02-19T02:10:14.536Z,5.10
2023-02-19T02:13:17.485Z,5.10
2023-02-19T02:16:34.336Z,5.67
2023-02-19T02:19:58.773Z,5.15
2023-02-19T02:23:19.640Z,8.93
2023-02-19T02:26:31.759Z,4.78
2023-02-19T02:29:47.055Z,5.47
2023-02-19T02:33:10.997Z,7.23
2023-02-19T02:36:17.882Z,6.80
2023-02-19T02:39:23.503Z,6.68
2023-02-19T02:42:29.042Z,7.07
2023-02-19T02:45:36.192Z,7.93
2023-02-19T02:48:59.145Z,6.57
2023-02-19T02:52:22.271Z,7.82
2023-02-19T02:55:26.127Z,8.23
2023-02-19T02:58:29.526Z,8.02
2023-02-19T03:02:06.628Z,6.20
2023-02-19T03:05:43.292Z,8.17
2023-02-19T03:09:05.304Z,7.57
2023-02-19T03:12:33.076Z,6.07
2023-02-19T03:16:00.984Z,6.60
2023-02-19T03:19:20.239Z,6.40
2023-02-19T03:22:34.248Z,6.07
2023-02-19T03:25:57.020Z,6.35
2023-02-19T03:29:19.148Z,5.62
2023-02-19T03:32:27.805Z,5.72
2023-02-19T03:35:32.324Z,4.70
2023-02-19T03:38:42.585Z,4.37
2023-02-19T03:42:01.399Z,6.30
2023-02-19T03:45:19.850Z,4.50
2023-02-19T03:48:36.487Z,4.85
2023-02-19T03:52:01.857Z,4.18
2023-02-19T03:55:17.515Z,4.13
2023-02-19T03:58:43.501Z,4.78
2023-02-19T04:02:14.126Z,3.87
2023-02-19T04:05:22.714Z,4.93
2023-02-19T04:08:26.203Z,4.47
2023-02-19T04:11:29.860Z,4.63
2023-02-19T04:14:40.110Z,4.93
2023-02-19T04:17:47.796Z,5.65
2023-02-19T04:20:50.879Z,3.95
2023-02-19T04:23:54.182Z,5.03
2023-02-19T04:26:57.115Z,6.20
2023-02-19T04:29:59.897Z,5.12
2023-02-19T04:33:02.896Z,4.68
2023-02-19T04:36:06.103Z,3.90
2023-02-19T04:39:08.967Z,5.12
2023-02-19T04:42:11.684Z,3.77
2023-02-19T04:45:14.522Z,3.10
2023-02-19T04:48:17.216Z,3.97
2023-02-19T04:51:19.943Z,3.75
2023-02-19T04:54:22.744Z,2.03
2023-02-19T04:57:25.492Z,5.10
2023-02-19T05:00:29.480Z,3.78
2023-02-19T05:03:32.510Z,3.47
2023-02-19T05:06:35.300Z,6.03
2023-02-19T05:09:37.959Z,3.60
2023-02-19T05:12:40.653Z,3.67
2023-02-19T05:15:43.398Z,3.92
2023-02-19T05:18:47.009Z,4.72
2023-02-19T05:21:49.781Z,4.82
2023-02-19T05:24:52.524Z,5.32
2023-02-19T05:28:15.186Z,5.10
2023-02-19T05:31:18.757Z,6.10
2023-02-19T05:34:21.634Z,5.72
2023-02-19T05:37:24.409Z,5.72
2023-02-19T05:40:27.107Z,5.78
2023-02-19T05:43:29.842Z,5.37
2023-02-19T05:46:32.783Z,5.80
2023-02-19T05:49:35.998Z,6.57
2023-02-19T05:52:38.676Z,6.05
2023-02-19T05:55:41.496Z,5.50
2023-02-19T05:58:44.443Z,4.93
2023-02-19T06:01:48.084Z,4.75
2023-02-19T06:04:50.765Z,5.12
2023-02-19T06:07:53.555Z,4.07
2023-02-19T06:10:56.390Z,5.32
2023-02-19T06:13:59.454Z,4.73
2023-02-19T06:17:02.203Z,5.10
2023-02-19T06:20:05.812Z,4.93
2023-02-19T06:23:08.621Z,4.65
2023-02-19T06:26:21.496Z,5.25
2023-02-19T06:29:24.543Z,4.93
2023-02-19T06:32:27.538Z,27.67
2023-02-19T06:35:30.408Z,107.07
2023-02-19T06:38:33.214Z,9.90
2023-02-19T06:41:36.216Z,5.00
2023-02-19T06:44:39.074Z,16.27
2023-02-19T06:47:41.836Z,22.55
2023-02-19T06:50:44.711Z,25.45
2023-02-19T06:53:47.637Z,25.65
2023-02-19T06:56:50.414Z,25.10
2023-02-19T06:59:53.161Z,29.23
2023-02-19T07:02:56.788Z,29.63
2023-02-19T07:06:01.056Z,29.67
2023-02-19T07:09:05.454Z,28.23
2023-02-19T07:12:08.362Z,33.70
2023-02-19T07:15:11.166Z,33.80
2023-02-19T07:18:14.098Z,33.92
2023-02-19T07:21:17.807Z,37.92
2023-02-19T07:24:21.855Z,39.00
2023-02-19T07:27:25.157Z,37.35
2023-02-19T07:30:27.938Z,35.00
2023-02-19T07:33:31.038Z,38.20
2023-02-19T07:36:33.794Z,40.30
2023-02-19T07:39:37.660Z,35.33
2023-02-19T07:42:40.554Z,37.88
2023-02-19T07:45:44.044Z,40.43
2023-02-19T07:48:47.546Z,42.58
2023-02-19T07:51:50.458Z,40.40
2023-02-19T07:54:53.168Z,41.78
2023-02-19T07:57:58.747Z,42.33
2023-02-19T08:01:14.298Z,40.97
2023-02-19T08:04:17.254Z,42.80
2023-02-19T08:07:20.542Z,42.15
2023-02-19T08:10:43.537Z,40.83
2023-02-19T08:13:49.174Z,38.92
2023-02-19T08:16:52.945Z,44.23
2023-02-19T08:19:55.803Z,40.58
2023-02-19T08:22:58.713Z,42.30
2023-02-19T08:26:02.614Z,39.40
2023-02-19T08:29:06.137Z,46.13
2023-02-19T08:32:09.320Z,42.47
2023-02-19T08:35:12.058Z,43.33
2023-02-19T08:38:16.708Z,46.20
2023-02-19T08:41:22.507Z,43.58
2023-02-19T08:44:25.347Z,43.35
2023-02-19T08:47:28.271Z,43.53
2023-02-19T08:50:31.218Z,45.72
2023-02-19T08:53:35.280Z,40.97
2023-02-19T08:56:38.009Z,43.70
2023-02-19T08:59:40.830Z,40.67
2023-02-19T09:02:43.713Z,43.70
2023-02-19T09:05:49.647Z,39.63
2023-02-19T09:08:52.601Z,41.50
2023-02-19T09:11:55.412Z,41.10
2023-02-19T09:14:58.165Z,43.78
2023-02-19T09:18:00.875Z,40.87
2023-02-19T09:21:05.313Z,41.75
2023-02-19T09:24:09.601Z,42.03
2023-02-19T09:27:16.927Z,38.95
2023-02-19T09:30:21.604Z,40.30
2023-02-19T09:33:24.413Z,40.77
2023-02-19T09:36:27.413Z,41.97
2023-02-19T09:39:34.405Z,33.90
2023-02-19T09:42:40.794Z,36.10
2023-02-19T09:45:43.981Z,33.55
2023-02-19T09:48:46.939Z,34.50
2023-02-19T09:52:13.190Z,35.65
2023-02-19T09:55:36.823Z,32.00
2023-02-19T09:59:02.961Z,32.42
2023-02-19T10:02:22.995Z,29.90
2023-02-19T10:05:26.706Z,31.60
2023-02-19T10:08:33.152Z,31.15
2023-02-19T10:11:36.080Z,28.20
2023-02-19T10:14:50.826Z,27.75
2023-02-19T10:17:53.800Z,22.55
2023-02-19T10:20:58.714Z,20.30
2023-02-19T10:24:06.449Z,18.73
2023-02-19T10:27:14.470Z,20.45
2023-02-19T10:30:23.662Z,20.25
2023-02-19T10:33:26.959Z,20.33
2023-02-19T10:36:33.164Z,21.53
2023-02-19T10:39:42.879Z,14.23
2023-02-19T10:43:13.250Z,15.48
2023-02-19T10:46:19.271Z,11.77
2023-02-19T10:49:25.334Z,11.45
2023-02-19T10:52:36.831Z,9.50
2023-02-19T10:55:41.464Z,8.60
2023-02-19T10:58:45.246Z,8.85
2023-02-19T11:02:02.230Z,8.88
2023-02-19T11:05:17.322Z,7.45
2023-02-19T11:08:24.400Z,6.47
2023-02-19T11:11:34.030Z,7.30
2023-02-19T11:14:37.175Z,8.15
2023-02-19T11:17:39.932Z,8.88
2023-02-19T11:20:48.818Z,7.30
2023-02-19T11:23:54.832Z,5.93
2023-02-19T11:26:58.723Z,6.32
2023-02-19T11:30:35.885Z,6.93
2023-02-19T11:34:04.568Z,7.15
2023-02-19T11:37:14.955Z,6.87
2023-02-19T11:40:17.832Z,5.77
2023-02-19T11:43:40.337Z,7.53
2023-02-19T11:47:07.695Z,6.95
2023-02-19T11:50:56.808Z,8.02
2023-02-19T11:54:38.315Z,7.20
2023-02-19T11:57:47.734Z,7.20
2023-02-19T12:01:16.390Z,7.20
2023-02-19T12:04:53.456Z,5.30
2023-02-19T12:07:56.288Z,4.90
2023-02-19T12:11:16.624Z,5.30
2023-02-19T12:14:25.837Z,4.67
2023-02-19T12:17:40.941Z,3.90
2023-02-19T12:21:21.445Z,3.75
2023-02-19T12:24:34.608Z,3.00
2023-02-19T12:28:11.260Z,4.28
2023-02-19T12:31:43.582Z,3.40
2023-02-19T12:35:02.488Z,3.08
2023-02-19T12:38:26.684Z,2.62
2023-02-19T12:41:35.753Z,3.10
2023-02-19T12:44:44.091Z,3.72
2023-02-19T12:48:16.357Z,2.30
2023-02-19T12:51:25.067Z,2.72
2023-02-19T12:54:50.436Z,3.85
2023-02-19T12:57:53.632Z,3.03
2023-02-19T13:00:59.924Z,3.45
2023-02-19T13:04:08.853Z,3.43
2023-02-19T13:07:19.292Z,3.40
2023-02-19T13:10:43.734Z,3.58
2023-02-19T13:14:11.119Z,3.37
2023-02-19T13:17:23.189Z,3.45
2023-02-19T13:20:39.599Z,2.83
2023-02-19T13:23:58.570Z,2.80
2023-02-19T13:27:32.429Z,4.50
2023-02-19T13:31:00.430Z,2.95
2023-02-19T13:34:30.783Z,2.85
2023-02-19T13:37:36.680Z,3.33
2023-02-19T13:40:42.759Z,3.00
2023-02-19T13:43:55.851Z,3.12
2023-02-19T13:46:59.239Z,3.72
2023-02-19T13:50:07.044Z,4.30
2023-02-19T13:53:51.880Z,3.40
2023-02-19T13:57:22.932Z,4.22
2023-02-19T14:00:52.131Z,4.70
2023-02-19T14:04:08.884Z,3.67
2023-02-19T14:07:11.618Z,3.87
2023-02-19T14:10:46.366Z,3.57
2023-02-19T14:13:52.394Z,5.68
2023-02-19T14:16:57.552Z,4.57
2023-02-19T14:20:23.322Z,3.22
2023-02-19T14:23:26.415Z,3.12
2023-02-19T14:26:32.153Z,2.90
2023-02-19T14:29:35.380Z,3.72
2023-02-19T14:32:40.194Z,3.67
2023-02-19T14:35:47.972Z,2.95
2023-02-19T14:39:06.407Z,2.83
2023-02-19T14:42:25.353Z,3.20
2023-02-19T14:45:29.622Z,2.55
2023-02-19T14:48:40.312Z,2.15
2023-02-19T14:51:46.069Z,2.75
2023-02-19T14:54:51.733Z,2.30
2023-02-19T14:57:55.656Z,3.20
2023-02-19T15:01:00.273Z,2.78
2023-02-19T15:04:03.556Z,2.53
2023-02-19T15:07:10.813Z,1.92
2023-02-19T15:10:14.980Z,1.95
2023-02-19T15:13:25.682Z,1.87
2023-02-19T15:16:30.599Z,4.47
2023-02-19T15:19:36.513Z,3.08
2023-02-19T15:22:40.614Z,3.20
2023-02-19T15:25:43.785Z,3.62
2023-02-19T15:28:46.746Z,4.27
2023-02-19T15:31:58.380Z,5.75
2023-02-19T15:35:03.585Z,6.15
2023-02-19T15:38:07.099Z,5.12
2023-02-19T15:41:20.431Z,3.15
2023-02-19T15:44:35.702Z,3.43
2023-02-19T15:47:41.836Z,3.10
2023-02-19T15:50:49.916Z,4.37
2023-02-19T15:53:57.683Z,3.40
2023-02-19T15:57:06.031Z,4.03
2023-02-19T16:00:20.228Z,3.27
2023-02-19T16:03:25.497Z,3.65
2023-02-19T16:06:29.363Z,3.33
2023-02-19T16:09:37.824Z,3.72
2023-02-19T16:12:41.452Z,2.65
2023-02-19T16:15:56.493Z,3.40
2023-02-19T16:19:01.277Z,4.62
2023-02-19T16:22:05.360Z,3.67
2023-02-19T16:25:10.089Z,2.92
2023-02-19T16:28:19.760Z,2.60
2023-02-19T16:31:24.905Z,3.57
2023-02-19T16:34:50.747Z,4.72
2023-02-19T16:37:59.079Z,2.72
2023-02-19T16:41:12.359Z,2.75
2023-02-19T16:44:21.783Z,16.33
2023-02-19T16:47:29.246Z,8.20
2023-02-19T16:50:33.397Z,26.65
2023-02-19T16:53:36.517Z,9.50
2023-02-19T16:56:40.013Z,10.75
2023-02-19T16:59:43.300Z,15.30
2023-02-19T17:02:51.767Z,10.63
2023-02-19T17:05:54.881Z,11.12
2023-02-19T17:08:58.556Z,4.22
2023-02-19T17:12:02.605Z,4.65
2023-02-19T17:15:06.037Z,5.12
2023-02-19T17:18:12.185Z,5.13
2023-02-19T17:21:21.288Z,2.53
2023-02-19T17:24:27.327Z,2.80
2023-02-19T17:27:30.055Z,3.45
2023-02-19T17:30:33.919Z,2.45
2023-02-19T17:33:37.936Z,3.27
2023-02-19T17:36:43.378Z,6.53
2023-02-19T17:39:46.418Z,4.05
2023-02-19T17:42:49.599Z,4.97
2023-02-19T17:45:53.210Z,4.30
2023-02-19T17:48:56.608Z,4.87
2023-02-19T17:52:00.186Z,7.72
2023-02-19T17:55:03.295Z,13.35
2023-02-19T17:58:07.101Z,7.00
2023-02-19T18:01:10.905Z,8.13
2023-02-19T18:04:14.249Z,12.80
2023-02-19T18:07:17.321Z,19.60
2023-02-19T18:10:22.450Z,7.00
2023-02-19T18:13:25.580Z,6.90
2023-02-19T18:16:28.627Z,8.10
2023-02-19T18:19:31.791Z,8.03
2023-02-19T18:22:34.767Z,7.57
2023-02-19T18:25:37.815Z,9.32
2023-02-19T18:28:40.979Z,6.90
2023-02-19T18:31:43.803Z,3.53
2023-02-19T18:34:52.027Z,4.03
2023-02-19T18:37:55.191Z,3.22
2023-02-19T18:40:59.281Z,7.53
2023-02-19T18:44:03.381Z,5.12
2023-02-19T18:47:07.431Z,6.25
2023-02-19T18:50:11.785Z,5.00
2023-02-19T18:53:15.275Z,4.37
2023-02-19T18:56:18.583Z,5.57
2023-02-19T18:59:22.088Z,4.15
2023-02-19T19:02:25.737Z,4.85
2023-02-19T19:05:29.605Z,4.23
2023-02-19T19:08:33.012Z,6.45
2023-02-19T19:11:36.548Z,6.25
2023-02-19T19:14:40.254Z,4.35
2023-02-19T19:17:49.464Z,14.55
2023-02-19T19:20:56.679Z,11.37
2023-02-19T19:24:00.247Z,15.27
2023-02-19T19:27:03.545Z,8.68
2023-02-19T19:30:08.490Z,12.18
2023-02-19T19:33:12.132Z,16.30
2023-02-19T19:36:22.322Z,14.90
2023-02-19T19:39:26.171Z,9.43
2023-02-19T19:42:29.533Z,8.82
2023-02-19T19:45:32.896Z,7.75
2023-02-19T19:48:36.114Z,8.77
2023-02-19T19:51:39.543Z,6.60
2023-02-19T19:54:43.814Z,6.62
2023-02-19T19:57:47.853Z,11.35
2023-02-19T20:00:52.078Z,7.18
2023-02-19T20:03:56.306Z,5.30
2023-02-19T20:07:00.477Z,8.33
2023-02-19T20:10:05.606Z,10.38
2023-02-19T20:13:08.855Z,8.13
2023-02-19T20:16:12.629Z,4.82
2023-02-19T20:19:16.715Z,5.75
2023-02-19T20:22:20.533Z,6.00
2023-02-19T20:25:24.773Z,6.28
2023-02-19T20:28:27.665Z,6.25
2023-02-19T20:31:31.732Z,5.40
2023-02-19T20:34:35.277Z,4.47
2023-02-19T20:37:39.863Z,4.27
2023-02-19T20:40:43.336Z,4.32
2023-02-19T20:43:47.040Z,4.12
2023-02-19T20:46:51.956Z,5.93
2023-02-19T20:49:55.295Z,4.78
2023-02-19T20:52:58.669Z,5.03
2023-02-19T20:56:01.676Z,5.32
2023-02-19T20:59:04.705Z,5.43
2023-02-19T21:02:19.555Z,5.07
2023-02-19T21:05:22.978Z,5.95
2023-02-19T21:08:26.607Z,5.57
2023-02-19T21:11:29.865Z,5.95
2023-02-19T21:14:33.126Z,7.75
2023-02-19T21:17:36.444Z,6.60
2023-02-19T21:20:39.659Z,5.87
2023-02-19T21:23:43.606Z,6.00
2023-02-19T21:26:46.861Z,5.60
2023-02-19T21:29:50.061Z,6.15
2023-02-19T21:32:53.130Z,5.00
2023-02-19T21:35:57.901Z,4.95
2023-02-19T21:39:01.587Z,4.57
2023-02-19T21:42:04.807Z,5.10
2023-02-19T21:45:08.085Z,4.03
2023-02-19T21:48:11.172Z,6.22
2023-02-19T21:51:14.325Z,5.68
2023-02-19T21:54:24.862Z,5.73
2023-02-19T21:57:28.067Z,5.40
2023-02-19T22:00:31.670Z,5.43
2023-02-19T22:03:34.603Z,5.30
2023-02-19T22:06:39.483Z,4.53
2023-02-19T22:09:42.345Z,5.97
2023-02-19T22:12:45.505Z,6.78
2023-02-19T22:15:48.469Z,4.85
2023-02-19T22:18:53.571Z,5.85
2023-02-19T22:21:56.506Z,4.82
2023-02-19T22:24:59.266Z,5.27
2023-02-19T22:28:04.596Z,6.00
2023-02-19T22:31:08.368Z,5.15
2023-02-19T22:34:11.325Z,3.85
2023-02-19T22:37:14.271Z,7.25
2023-02-19T22:40:17.255Z,4.63
2023-02-19T22:43:20.121Z,5.00
2023-02-19T22:46:28.976Z,5.30
2023-02-19T22:49:32.054Z,4.87
2023-02-19T22:52:35.005Z,5.03
2023-02-19T22:55:37.768Z,4.47
2023-02-19T22:58:41.182Z,7.10
2023-02-19T23:01:43.967Z,5.75
2023-02-19T23:04:46.975Z,5.80
2023-02-19T23:07:49.711Z,5.28
2023-02-19T23:10:53.019Z,9.07
2023-02-19T23:13:55.869Z,6.07
2023-02-19T23:16:58.968Z,5.93
2023-02-19T23:20:02.116Z,5.80
2023-02-19T23:23:05.377Z,5.00
2023-02-19T23:26:08.384Z,4.20
2023-02-19T23:29:11.312Z,4.35
2023-02-19T23:32:14.280Z,4.70
2023-02-19T23:35:17.264Z,5.72
2023-02-19T23:38:20.226Z,4.30
2023-02-19T23:41:23.028Z,5.83
2023-02-19T23:44:26.100Z,4.28
2023-02-19T23:47:30.664Z,4.50
2023-02-19T23:50:39.863Z,3.40
2023-02-19T23:53:42.771Z,6.55
2023-02-19T23:56:45.564Z,6.33
2023-02-19T23:59:49.404Z,5.05
